Time;durP1;ratioP1;P1;durP2;ratioP2;P2;SDS_P1;SDS_P2;PMS_P1;PMS_P2;Temp;Humidity;BMP_temperature;BMP_pressure;BME280_temperature;BME280_humidity;BME280_pressure;Samples;Min_cycle;Max_cycle;Signal;HPM_P1;HPM_P2
2023/01/22 00:01:28;;;;;;;6.70;4.32;;;;;;;20.66;49.35;100407.56;20913525;28;20037;-81
2023/01/22 00:11:28;;;;;;;5.88;4.10;;;;;;;20.63;49.33;100427.06;20900844;28;20044;-80
2023/01/22 00:21:29;;;;;;;5.32;3.67;;;;;;;20.60;49.43;100435.16;20909784;28;20430;-80
2023/01/22 00:31:29;;;;;;;5.82;3.80;;;;;;;20.57;49.20;100428.34;20913430;28;20067;-80
2023/01/22 00:41:30;;;;;;;4.93;3.60;;;;;;;20.59;49.09;100438.75;20937835;28;20041;-80
2023/01/22 00:51:32;;;;;;;4.63;3.40;;;;;;;20.57;49.36;100438.03;20916717;28;20040;-80
2023/01/22 01:01:32;;;;;;;3.95;3.10;;;;;;;20.58;49.37;100444.94;20923736;28;20048;-80
2023/01/22 01:11:33;;;;;;;5.03;3.10;;;;;;;20.57;49.52;100457.28;20937676;28;20041;-79
2023/01/22 01:21:33;;;;;;;6.15;3.38;;;;;;;20.56;49.46;100452.13;20923129;28;20044;-79
2023/01/22 01:31:34;;;;;;;3.63;2.90;;;;;;;20.56;49.65;100465.28;20924475;28;20041;-80
2023/01/22 01:41:35;;;;;;;4.13;2.90;;;;;;;20.53;49.34;100465.50;20947038;28;23229;-79
2023/01/22 01:51:35;;;;;;;4.13;2.90;;;;;;;20.51;49.26;100468.25;20939884;28;20045;-78
2023/01/22 02:01:36;;;;;;;3.55;2.85;;;;;;;20.51;49.29;100463.00;20938608;28;20070;-80
2023/01/22 02:11:38;;;;;;;3.75;2.85;;;;;;;20.52;49.41;100450.66;20934959;28;20041;-78
2023/01/22 02:21:42;;;;;;;4.37;2.87;;;;;;;20.51;49.49;100444.59;20939851;28;20044;-78
2023/01/22 02:31:42;;;;;;;4.05;2.55;;;;;;;20.50;49.48;100447.34;20916602;28;20052;-79
2023/01/22 02:41:43;;;;;;;3.60;2.55;;;;;;;20.49;49.12;100438.59;20923564;28;20052;-79
2023/01/22 02:51:44;;;;;;;4.15;2.80;;;;;;;20.47;49.33;100433.44;20935962;28;20048;-78
2023/01/22 03:01:44;;;;;;;4.00;2.55;;;;;;;20.50;49.00;100423.66;20939160;28;20439;-79
2023/01/22 03:11:46;;;;;;;3.28;2.28;;;;;;;20.45;48.91;100411.66;20923326;28;20043;-79
2023/01/22 03:21:46;;;;;;;2.97;2.13;;;;;;;20.48;49.07;100415.84;20911181;28;20885;-79
2023/01/22 03:31:47;;;;;;;3.35;2.45;;;;;;;20.47;48.84;100412.41;20915920;28;20063;-79
2023/01/22 03:41:47;;;;;;;3.25;2.15;;;;;;;20.49;48.98;100409.66;20935978;28;20068;-79
2023/01/22 03:51:48;;;;;;;2.80;1.95;;;;;;;20.49;49.36;100409.66;20946206;28;20381;-78
2023/01/22 04:01:49;;;;;;;3.03;2.20;;;;;;;20.50;49.25;100413.13;20929786;28;20098;-79
2023/01/22 04:11:50;;;;;;;2.97;2.00;;;;;;;20.47;49.22;100414.22;20931439;28;20044;-80
2023/01/22 04:21:51;;;;;;;2.55;1.70;;;;;;;20.48;49.01;100415.84;20935989;28;20045;-80
2023/01/22 04:31:52;;;;;;;3.10;1.90;;;;;;;20.47;49.22;100408.94;20911621;28;20048;-81
2023/01/22 04:41:52;;;;;;;2.72;1.98;;;;;;;20.45;49.20;100398.53;20937817;28;20385;-81
2023/01/22 04:51:53;;;;;;;2.53;1.70;;;;;;;20.47;49.07;100403.69;20915753;28;20153;-80
2023/01/22 05:01:53;;;;;;;1.92;1.63;;;;;;;20.44;49.40;100414.41;20919902;28;20040;-81
2023/01/22 05:11:53;;;;;;;3.10;1.80;;;;;;;20.48;49.28;100434.28;20922839;28;20041;-82
2023/01/22 05:21:55;;;;;;;2.88;1.95;;;;;;;20.51;49.19;100449.84;20923359;28;20049;-80
2023/01/22 05:31:56;;;;;;;2.95;1.80;;;;;;;20.56;49.04;100468.75;20910392;28;20150;-81
2023/01/22 05:41:57;;;;;;;2.60;1.70;;;;;;;20.63;49.18;100474.41;20912124;28;20040;-81
2023/01/22 05:51:57;;;;;;;3.92;1.77;;;;;;;20.70;49.28;100495.84;20880168;28;20499;-81
2023/01/22 06:01:57;;;;;;;4.80;1.83;;;;;;;20.77;49.84;100508.44;20897726;28;20045;-77
2023/01/22 06:11:58;;;;;;;5.18;1.75;;;;;;;20.85;50.02;100510.53;20905812;28;20056;-78
2023/01/22 06:21:58;;;;;;;4.53;1.70;;;;;;;20.92;49.64;100526.69;20918609;28;20032;-78
2023/01/22 06:31:59;;;;;;;2.45;1.73;;;;;;;20.99;49.63;100548.97;20917608;28;20396;-78
2023/01/22 06:41:59;;;;;;;3.28;1.52;;;;;;;21.03;49.87;100560.97;20926856;28;20044;-77
2023/01/22 06:51:59;;;;;;;1.90;1.40;;;;;;;21.13;49.41;100555.03;20900243;28;20052;-78
2023/01/22 07:02:01;;;;;;;3.10;1.70;;;;;;;21.21;49.92;100579.81;20920997;28;20052;-78
2023/01/22 07:12:02;;;;;;;2.35;1.45;;;;;;;21.30;50.43;100590.63;20935036;28;20054;-78
2023/01/22 07:22:04;;;;;;;2.50;1.27;;;;;;;21.37;50.36;100602.38;20912730;28;20116;-78
2023/01/22 07:32:05;;;;;;;2.67;1.40;;;;;;;21.45;50.46;100618.47;20936745;28;20083;-78
2023/01/22 07:42:05;;;;;;;1.50;1.40;;;;;;;21.50;50.58;100634.75;20947388;28;20410;-78
2023/01/22 07:52:06;;;;;;;2.85;1.90;;;;;;;21.54;49.90;100624.84;20932684;28;20045;-80
2023/01/22 08:02:13;;;;;;;3.00;2.20;;;;;;;21.59;49.85;100641.16;20946348;28;21011;-81
2023/01/22 08:12:14;;;;;;;3.63;2.40;;;;;;;21.65;50.25;100638.06;20928443;28;20052;-81
2023/01/22 08:22:15;;;;;;;11.63;3.50;;;;;;;21.55;46.50;100677.41;20923083;28;20496;-84
2023/01/22 08:32:17;;;;;;;6.50;3.20;;;;;;;21.63;47.48;100678.66;20940173;28;20072;-80
2023/01/22 08:42:17;;;;;;;10.20;3.70;;;;;;;21.67;47.87;100702.03;20941201;28;20037;-78
2023/01/22 08:52:18;;;;;;;11.38;6.20;;;;;;;21.69;47.56;100715.09;20926394;28;20052;-80
2023/01/22 09:02:18;;;;;;;13.45;5.15;;;;;;;21.68;47.58;100719.53;20924936;28;20078;-77
2023/01/22 09:12:19;;;;;;;10.35;5.13;;;;;;;21.66;48.09;100726.72;20934600;28;20073;-76
2023/01/22 09:22:19;;;;;;;10.75;6.55;;;;;;;21.66;47.60;100729.34;20920234;28;20068;-76
2023/01/22 09:32:20;;;;;;;10.75;5.93;;;;;;;21.65;47.59;100742.66;20921055;28;20090;-76
2023/01/22 09:42:33;;;;;;;8.85;5.20;;;;;;;21.63;47.77;100755.09;20929222;28;20057;-76
2023/01/22 09:52:38;;;;;;;9.05;5.88;;;;;;;21.60;47.93;100753.53;20934003;28;20045;-76
2023/01/22 10:02:44;;;;;;;9.88;5.63;;;;;;;21.57;47.56;100761.66;20935424;28;20537;-76
2023/01/22 10:12:55;;;;;;;10.18;5.20;;;;;;;21.52;47.91;100766.38;20943028;28;20044;-78
2023/01/22 10:23:00;;;;;;;11.35;5.22;;;;;;;21.50;48.09;100771.78;20918557;28;20080;-81
2023/01/22 10:33:05;;;;;;;18.50;5.93;;;;;;;21.55;48.55;100779.34;20942397;28;20032;-79
2023/01/22 10:43:10;;;;;;;12.23;6.60;;;;;;;21.57;49.25;100785.38;20924693;28;20049;-80
2023/01/22 10:53:19;;;;;;;13.57;6.28;;;;;;;21.58;49.25;100792.31;20934226;28;20056;-81
2023/01/22 11:03:22;;;;;;;7.53;5.13;;;;;;;21.58;49.51;100776.50;20949917;28;20044;-79
2023/01/22 11:13:49;;;;;;;8.15;5.20;;;;;;;21.61;49.63;100788.63;20957611;28;20036;-78
2023/01/22 11:24:07;;;;;;;8.65;5.03;;;;;;;21.63;49.63;100784.06;20942239;28;20047;-83
2023/01/22 11:34:12;;;;;;;10.05;5.22;;;;;;;21.62;49.77;100814.88;20934209;28;20051;-85
2023/01/22 11:44:32;;;;;;;10.30;5.18;;;;;;;21.62;49.61;100798.19;20922456;28;20073;-87
2023/01/22 11:54:46;;;;;;;6.60;4.45;;;;;;;21.61;50.02;100800.00;20938397;28;20550;-89
2023/01/22 12:05:01;;;;;;;11.68;6.03;;;;;;;21.67;51.61;100817.19;20929652;28;20179;-85
2023/01/22 12:15:08;;;;;;;23.35;6.78;;;;;;;;;;20910975;28;20037;-82
2023/01/22 12:25:18;;;;;;;14.20;7.10;;;;;;;21.74;54.42;100828.97;20919078;28;20040;-79
2023/01/22 12:35:21;;;;;;;13.60;6.18;;;;;;;21.75;53.84;100844.66;20934102;28;20045;-90
2023/01/22 12:45:31;;;;;;;13.38;6.15;;;;;;;21.77;53.55;100852.44;20901834;28;20044;-80
2023/01/22 12:55:40;;;;;;;14.02;5.95;;;;;;;21.81;53.27;100863.59;20928265;28;20109;-80
2023/01/22 13:05:44;;;;;;;13.43;5.97;;;;;;;21.81;53.28;100872.34;20922731;28;20124;-81
2023/01/22 13:15:52;;;;;;;12.05;5.43;;;;;;;21.82;52.83;100895.13;20936865;28;20040;-81
2023/01/22 13:25:54;;;;;;;12.07;5.85;;;;;;;21.80;52.60;100899.69;20932810;28;20040;-82
2023/01/22 13:35:56;;;;;;;13.38;6.85;;;;;;;21.80;52.29;100906.72;20934998;28;20047;-82
2023/01/22 13:45:57;;;;;;;12.97;6.60;;;;;;;21.77;52.27;100915.72;20941296;28;20078;-83
2023/01/22 13:55:59;;;;;;;11.02;6.78;;;;;;;21.77;52.07;100943.88;20930744;28;20104;-82
2023/01/22 14:06:02;;;;;;;10.68;6.18;;;;;;;;;;20946748;28;20045;-83
2023/01/22 14:16:05;;;;;;;14.10;7.38;;;;;;;21.72;51.83;100952.94;20937707;28;20472;-84
2023/01/22 14:26:08;;;;;;;11.18;7.40;;;;;;;21.70;51.31;100978.56;20937835;28;21770;-83
2023/01/22 14:36:08;;;;;;;12.68;7.43;;;;;;;21.74;51.43;100984.47;20929136;28;20044;-83
2023/01/22 14:46:10;;;;;;;25.17;8.70;;;;;;;21.75;52.33;100994.91;20925372;28;20053;-86
2023/01/22 14:56:11;;;;;;;17.55;8.45;;;;;;;21.74;52.00;101002.94;20938450;28;20132;-87
2023/01/22 15:06:12;;;;;;;18.08;8.55;;;;;;;21.30;45.72;101012.06;20910200;28;21621;-88
2023/01/22 15:16:13;;;;;;;15.80;7.70;;;;;;;21.42;47.49;101029.66;20921832;28;20052;-94
2023/01/22 15:26:34;;;;;;;13.35;7.38;;;;;;;21.49;49.70;101036.19;20934273;28;20216;-93
2023/01/22 15:36:40;;;;;;;11.25;6.25;;;;;;;21.52;50.97;101041.28;20919479;28;21348;-91
2023/01/22 15:46:41;;;;;;;9.38;6.50;;;;;;;21.55;51.66;101066.56;20950247;28;20071;-94
2023/01/22 15:56:42;;;;;;;10.93;6.43;;;;;;;21.56;51.83;101076.16;20902228;28;20078;-78
2023/01/22 16:06:43;;;;;;;9.88;6.35;;;;;;;21.54;51.92;101070.97;20886523;28;20037;-78
2023/01/22 16:16:44;;;;;;;12.15;5.90;;;;;;;21.54;51.98;101078.06;20894387;28;20056;-79
2023/01/22 16:26:53;;;;;;;8.95;5.68;;;;;;;21.53;52.20;101106.22;20900244;28;20041;-77
2023/01/22 16:36:56;;;;;;;8.32;5.65;;;;;;;21.53;52.32;101097.44;20901580;28;20048;-81
2023/01/22 16:46:59;;;;;;;9.10;6.30;;;;;;;21.52;52.46;101125.59;20911505;28;20045;-87
2023/01/22 16:57:04;;;;;;;8.82;5.60;;;;;;;21.50;52.20;101116.09;20900930;28;20112;-87
2023/01/22 17:07:05;;;;;;;9.40;5.30;;;;;;;21.49;52.41;101133.69;20912611;28;20048;-88
2023/01/22 17:17:10;;;;;;;26.45;6.80;;;;;;;21.48;52.54;101132.00;20899039;28;20056;-87
2023/01/22 17:27:17;;;;;;;11.00;6.00;;;;;;;21.47;52.71;101135.59;20915212;28;20070;-87
2023/01/22 17:37:19;;;;;;;9.05;5.45;;;;;;;21.46;52.70;101147.09;20909154;28;20049;-86
2023/01/22 17:47:19;;;;;;;9.83;5.33;;;;;;;21.45;53.06;101166.47;20931087;28;20139;-85
2023/01/22 17:57:20;;;;;;;10.32;5.80;;;;;;;21.45;53.02;101184.91;20913218;28;20041;-87
2023/01/22 18:07:23;;;;;;;7.85;5.10;;;;;;;21.44;52.79;101188.50;20892909;28;21107;-86
2023/01/22 18:17:24;;;;;;;7.97;5.40;;;;;;;21.43;52.69;101186.78;20901774;28;20574;-86
2023/01/22 18:27:26;;;;;;;9.45;5.90;;;;;;;21.39;52.58;101188.78;20905679;28;20040;-85
2023/01/22 18:37:28;;;;;;;9.05;6.07;;;;;;;21.39;52.54;101185.31;20930539;28;20040;-90
2023/01/22 18:58:29;;;;;;;17.67;7.15;;;;;;;21.41;53.73;101207.13;20808219;28;20048;-84
2023/01/22 19:08:30;;;;;;;17.95;7.22;;;;;;;21.43;55.37;101200.84;20830862;28;20046;-84
2023/01/22 19:18:32;;;;;;;18.77;8.65;;;;;;;21.43;56.16;101169.22;20843853;28;20132;-85
2023/01/22 19:28:34;;;;;;;19.75;9.45;;;;;;;21.43;56.11;101160.44;20838294;28;20061;-84
2023/01/22 19:38:35;;;;;;;37.50;10.37;;;;;;;21.46;56.59;101199.78;20845040;28;20041;-84
2023/01/22 19:48:37;;;;;;;20.25;10.18;;;;;;;21.43;55.92;101216.66;20820166;28;20033;-81
2023/01/22 19:58:38;;;;;;;20.60;9.90;;;;;;;21.43;55.86;101219.28;20817386;28;20423;-83
2023/01/22 20:08:41;;;;;;;17.35;9.05;;;;;;;21.39;56.13;101219.56;20843243;28;20135;-88
2023/01/22 20:18:44;;;;;;;22.35;9.75;;;;;;;21.28;54.33;101230.81;20829536;28;20121;-86
2023/01/22 20:28:45;;;;;;;;;;;;;;;21.25;54.42;101230.97;20853376;28;20568;-87
2023/01/22 20:38:48;;;;;;;15.40;8.93;;;;;;;21.26;54.50;101240.59;20833533;28;19929;-84
2023/01/22 20:48:49;;;;;;;;;;;;;;;21.25;54.20;101230.97;20877606;28;20120;-84
2023/01/22 20:59:03;;;;;;;17.02;8.43;;;;;;;21.21;54.28;101238.25;20931554;28;19924;-85
2023/01/22 21:09:06;;;;;;;14.50;8.25;;;;;;;21.19;53.82;101252.44;20942501;28;20074;-84
2023/01/22 21:19:13;;;;;;;13.70;7.75;;;;;;;21.16;53.97;101240.31;20947731;28;20048;-84
2023/01/22 21:29:17;;;;;;;15.43;8.00;;;;;;;21.10;54.02;101236.31;20914058;28;20025;-86
2023/01/22 21:39:22;;;;;;;12.27;7.47;;;;;;;21.11;53.77;101245.06;20903370;28;20044;-85
2023/01/22 21:49:23;;;;;;;14.35;7.15;;;;;;;21.11;53.53;101248.50;20942320;28;20044;-85
2023/01/22 21:59:24;;;;;;;10.38;7.30;;;;;;;21.08;53.51;101243.47;20946929;28;20052;-85
2023/01/22 22:09:26;;;;;;;10.80;6.97;;;;;;;21.10;53.28;101251.25;20939405;28;20040;-85
2023/01/22 22:19:27;;;;;;;16.00;6.70;;;;;;;21.03;53.20;101242.91;20938291;28;20041;-87
2023/01/22 22:29:28;;;;;;;11.02;6.60;;;;;;;21.01;53.59;101228.16;20929927;28;20505;-87
2023/01/22 22:39:28;;;;;;;10.50;6.43;;;;;;;20.98;53.04;101238.88;20907947;28;20119;-87
2023/01/22 22:49:29;;;;;;;10.10;6.35;;;;;;;20.94;53.37;101231.16;20922237;28;20040;-87
2023/01/22 22:59:29;;;;;;;9.07;6.05;;;;;;;20.90;53.30;101215.66;20920639;28;20048;-88
2023/01/22 23:09:30;;;;;;;10.18;6.20;;;;;;;20.89;53.15;101221.88;20912921;28;20035;-88
2023/01/22 23:19:30;;;;;;;8.75;5.75;;;;;;;20.86;53.26;101229.94;20920547;28;20029;-86
2023/01/22 23:29:31;;;;;;;9.73;5.60;;;;;;;20.83;53.52;101253.84;20917418;28;20144;-84
2023/01/22 23:39:32;;;;;;;9.07;5.68;;;;;;;20.82;53.57;101239.00;20927214;28;20047;-84
2023/01/22 23:49:32;;;;;;;8.48;5.82;;;;;;;20.81;53.57;101247.81;20921421;28;20414;-84
2023/01/22 23:59:33;;;;;;;9.27;5.80;;;;;;;20.82;53.49;101244.25;20910023;28;20403;-85
